Pine Castle, Florida
Current Conditions -  °F | °C
As of 8:18 AM on Thursday 30 Oct 2014 (Local Time) from KORL Reporting Station
Clear Clear  
Wind Chill: 70°   Ceiling: Unl
Heat Index: 70°   Visibility: 10mi
Dew Point: 66°   Wind: 5mph
Humidity: 87%   Direction: 360°N
Pressure: 29.99"   Gusts: NA
Location:  28.4877°N, 81.409°W
Report Text: KORL 301218Z 36004KT 10SM CLR 21/19 A2999 RMK AO2 T02110189
Loading
Personal Weather Stations






























Interactive Weather Map
Tropical Storm Tracking
New forecast layout! Learn more

10-Day Weather Forecast

Advertisements
Track Severe Weather on mobile